Time;durP1;ratioP1;P1;durP2;ratioP2;P2;SDS_P1;SDS_P2;PMS_P1;PMS_P2;Temp;Humidity;BMP_temperature;BMP_pressure;BME280_temperature;BME280_humidity;BME280_pressure;Samples;Min_cycle;Max_cycle;Signal;HPM_P1;HPM_P2
2023/03/16 00:01:06;;;;;;;1.45;0.70;;;;;;;;;;2077538;28;20077;-78
2023/03/16 00:02:25;;;;;;;2.25;0.60;;;;;;;;;;2078798;28;20029;-79
2023/03/16 00:03:44;;;;;;;4.72;1.33;;;;;;;;;;2079751;28;20410;-78
2023/03/16 00:05:03;;;;;;;3.42;0.93;;;;;;;;;;2069913;28;20168;-79
2023/03/16 00:06:22;;;;;;;2.35;0.90;;;;;;;;;;2068683;28;21795;-78
2023/03/16 00:07:42;;;;;;;2.50;0.60;;;;;;;;;;2070186;28;20030;-79
2023/03/16 00:09:00;;;;;;;0.60;0.60;;;;;;;;;;2076603;28;20037;-79
2023/03/16 00:10:25;;;;;;;1.58;0.88;;;;;;;;;;2072860;28;20029;-79
2023/03/16 00:11:44;;;;;;;2.95;0.77;;;;;;;;;;2079272;28;20033;-78
2023/03/16 00:13:04;;;;;;;2.17;1.13;;;;;;;;;;2080821;28;20478;-78
2023/03/16 00:14:24;;;;;;;1.52;0.90;;;;;;;;;;2080514;28;20033;-78
2023/03/16 00:15:53;;;;;;;1.27;0.70;;;;;;;;;;2072952;28;20034;-78
2023/03/16 00:17:17;;;;;;;0.80;0.50;;;;;;;;;;2080896;28;20033;-78
2023/03/16 00:18:40;;;;;;;1.20;0.80;;;;;;;;;;2073792;28;20042;-78
2023/03/16 00:20:05;;;;;;;1.33;0.82;;;;;;;;;;2071051;28;20459;-78
2023/03/16 00:21:24;;;;;;;2.15;0.70;;;;;;;;;;2077343;28;20026;-78
2023/03/16 00:22:44;;;;;;;1.50;0.90;;;;;;;;;;2080045;28;20033;-79
2023/03/16 00:24:03;;;;;;;1.10;0.65;;;;;;;;;;2074662;28;20038;-78
2023/03/16 00:25:23;;;;;;;2.92;0.80;;;;;;;;;;2076729;28;20017;-77
2023/03/16 00:26:42;;;;;;;0.90;0.60;;;;;;;;;;2079016;28;20034;-78
2023/03/16 00:28:03;;;;;;;3.33;0.95;;;;;;;;;;2070949;28;20026;-78
2023/03/16 00:29:23;;;;;;;3.38;0.80;;;;;;;;;;2076346;28;20432;-78
2023/03/16 00:30:46;;;;;;;3.55;0.80;;;;;;;;;;2072964;28;20033;-78
2023/03/16 00:32:05;;;;;;;3.40;1.10;;;;;;;;;;2079948;28;20029;-78
2023/03/16 00:33:24;;;;;;;1.75;0.80;;;;;;;;;;2073069;28;20045;-78
2023/03/16 00:34:44;;;;;;;1.95;1.00;;;;;;;;;;2076000;28;20025;-79
2023/03/16 00:36:03;;;;;;;1.30;0.70;;;;;;;;;;2079476;28;20037;-78
2023/03/16 00:37:23;;;;;;;1.30;0.80;;;;;;;;;;2078651;28;20037;-78
2023/03/16 00:38:47;;;;;;;1.35;0.70;;;;;;;;;;2075442;28;20041;-78
2023/03/16 00:40:06;;;;;;;3.50;0.85;;;;;;;;;;2078633;28;20486;-78
2023/03/16 00:41:25;;;;;;;1.92;0.93;;;;;;;;;;2073093;28;20030;-78
2023/03/16 00:42:44;;;;;;;1.70;0.80;;;;;;;;;;2077582;28;20113;-78
2023/03/16 00:44:03;;;;;;;2.63;0.60;;;;;;;;;;2075269;28;20121;-80
2023/03/16 00:45:23;;;;;;;3.40;0.70;;;;;;;;;;2077214;28;20659;-77
2023/03/16 00:46:42;;;;;;;1.52;0.90;;;;;;;;;;2079682;28;20026;-78
2023/03/16 00:48:01;;;;;;;4.10;0.80;;;;;;;;;;2079876;28;20787;-78
2023/03/16 00:49:21;;;;;;;3.70;1.17;;;;;;;;;;2080299;28;20494;-78
2023/03/16 00:50:42;;;;;;;2.53;0.98;;;;;;;;;;2071184;28;20030;-78
2023/03/16 00:52:02;;;;;;;2.05;0.65;;;;;;;;;;2080088;28;20112;-78
2023/03/16 00:53:21;;;;;;;0.90;0.85;;;;;;;;;;2072316;28;20057;-77
2023/03/16 00:54:43;;;;;;;2.75;0.90;;;;;;;;;;2068409;28;20045;-78
2023/03/16 00:56:03;;;;;;;0.88;0.70;;;;;;;;;;2078608;28;20033;-77
2023/03/16 00:57:23;;;;;;;1.98;1.10;;;;;;;;;;2073440;28;20018;-78
2023/03/16 00:58:43;;;;;;;1.70;0.70;;;;;;;;;;2077814;28;20037;-77
2023/03/16 01:00:11;;;;;;;3.35;1.02;;;;;;;;;;2072131;28;20042;-78
2023/03/16 01:01:31;;;;;;;2.15;0.55;;;;;;;;;;2070727;28;20026;-77
2023/03/16 01:02:50;;;;;;;2.42;1.13;;;;;;;;;;2071852;28;20145;-77
2023/03/16 01:04:09;;;;;;;3.90;0.98;;;;;;;;;;2078882;28;20723;-78
2023/03/16 01:05:29;;;;;;;2.75;1.33;;;;;;;;;;2072010;28;20029;-78
2023/03/16 01:06:48;;;;;;;1.77;1.00;;;;;;;;;;2069809;28;20017;-78
2023/03/16 01:08:09;;;;;;;1.15;0.80;;;;;;;;;;2071444;28;20034;-79
2023/03/16 01:09:28;;;;;;;1.02;0.93;;;;;;;;;;2077336;28;20034;-78
2023/03/16 01:10:48;;;;;;;1.63;0.82;;;;;;;;;;2073170;28;20033;-78
2023/03/16 01:12:08;;;;;;;3.60;0.98;;;;;;;;;;2072588;28;20038;-78
2023/03/16 01:13:27;;;;;;;3.05;0.85;;;;;;;;;;2078694;28;20021;-78
2023/03/16 01:14:46;;;;;;;2.53;0.82;;;;;;;;;;2079647;28;20037;-80
2023/03/16 01:16:05;;;;;;;3.70;1.00;;;;;;;;;;2082268;28;20030;-78
2023/03/16 01:17:25;;;;;;;0.60;0.60;;;;;;;;;;2080098;28;20025;-79
2023/03/16 01:18:44;;;;;;;1.95;0.90;;;;;;;;;;2081281;28;20037;-79
2023/03/16 01:20:07;;;;;;;1.23;0.65;;;;;;;;;;2075319;28;20069;-78
2023/03/16 01:21:26;;;;;;;2.00;0.70;;;;;;;;;;2074308;28;20041;-78
2023/03/16 01:22:45;;;;;;;1.77;0.60;;;;;;;;;;2068919;28;20507;-78
2023/03/16 01:24:04;;;;;;;1.92;0.70;;;;;;;;;;2078675;28;21273;-78
2023/03/16 01:25:23;;;;;;;1.20;0.90;;;;;;;;;;2080970;28;20061;-79
2023/03/16 01:26:41;;;;;;;2.33;0.80;;;;;;;;;;2082083;28;20022;-78
2023/03/16 01:28:00;;;;;;;1.13;1.00;;;;;;;;;;2076009;28;20144;-81
2023/03/16 01:29:19;;;;;;;2.47;1.02;;;;;;;;;;2078178;28;20510;-79
2023/03/16 01:30:39;;;;;;;1.80;0.80;;;;;;;;;;2081827;28;20072;-79
2023/03/16 01:31:58;;;;;;;1.00;0.85;;;;;;;;;;2082011;28;20010;-79
2023/03/16 01:33:17;;;;;;;2.30;0.80;;;;;;;;;;2078853;28;20091;-79
2023/03/16 01:34:36;;;;;;;2.00;1.23;;;;;;;;;;2086994;28;20034;-79
2023/03/16 01:35:56;;;;;;;2.03;0.75;;;;;;;;;;2083919;28;20014;-78
2023/03/16 01:37:16;;;;;;;1.25;0.90;;;;;;;;;;2077304;28;20011;-79
2023/03/16 01:38:35;;;;;;;2.80;0.75;;;;;;;;;;2085959;28;20045;-78
2023/03/16 01:39:54;;;;;;;1.58;0.60;;;;;;;;;;2089588;28;20025;-77
2023/03/16 01:41:14;;;;;;;0.85;0.57;;;;;;;;;;2089313;28;20046;-78
2023/03/16 01:42:40;;;;;;;1.95;0.80;;;;;;;;;;2087797;28;20029;-78
2023/03/16 01:44:00;;;;;;;1.10;0.82;;;;;;;;;;2085169;28;20421;-78
2023/03/16 01:45:37;;;;;;;1.52;0.75;;;;;;;;;;2072423;28;20029;-77
2023/03/16 01:46:56;;;;;;;2.20;0.93;;;;;;;;;;2081907;28;20041;-78
2023/03/16 01:48:15;;;;;;;1.02;0.80;;;;;;;;;;2075647;28;20097;-78
2023/03/16 01:49:35;;;;;;;1.38;0.77;;;;;;;;;;2079986;28;20025;-78
2023/03/16 01:50:55;;;;;;;3.35;0.88;;;;;;;;;;2082999;28;20029;-78
2023/03/16 01:52:17;;;;;;;1.90;0.98;;;;;;;;;;2082377;28;20040;-78
2023/03/16 01:53:38;;;;;;;0.80;0.60;;;;;;;;;;2073203;28;20030;-78
2023/03/16 01:55:02;;;;;;;1.17;0.95;;;;;;;;;;2071063;28;20038;-77
2023/03/16 01:56:24;;;;;;;6.05;1.30;;;;;;;;;;2078728;28;20037;-78
2023/03/16 01:57:45;;;;;;;0.80;0.70;;;;;;;;;;2072606;28;20499;-77
2023/03/16 01:59:06;;;;;;;6.70;0.82;;;;;;;;;;2078891;28;20025;-78
2023/03/16 02:00:30;;;;;;;2.58;0.75;;;;;;;;;;2080607;28;20026;-79
2023/03/16 02:01:50;;;;;;;7.63;0.90;;;;;;;;;;2080326;28;20026;-78
2023/03/16 02:03:12;;;;;;;0.73;0.70;;;;;;;;;;2071498;28;20033;-77
2023/03/16 02:04:35;;;;;;;1.80;0.98;;;;;;;;;;2078639;28;21044;-78
2023/03/16 02:06:17;;;;;;;4.28;1.17;;;;;;;;;;2075037;28;20414;-78
2023/03/16 02:07:39;;;;;;;1.00;0.77;;;;;;;;;;2080082;28;20021;-78
2023/03/16 02:08:59;;;;;;;3.53;0.85;;;;;;;;;;2080003;28;20033;-77
2023/03/16 02:10:19;;;;;;;5.53;1.05;;;;;;;;;;2080414;28;20080;-78
2023/03/16 02:11:38;;;;;;;1.75;0.70;;;;;;;;;;2073377;28;20029;-77
2023/03/16 02:12:57;;;;;;;4.32;0.85;;;;;;;;;;2076441;28;20029;-78
2023/03/16 02:14:16;;;;;;;3.42;0.77;;;;;;;;;;2081176;28;20084;-78
2023/03/16 02:15:35;;;;;;;0.90;0.80;;;;;;;;;;2077807;28;20033;-78
2023/03/16 02:16:54;;;;;;;4.07;0.95;;;;;;;;;;2079121;28;20425;-78
2023/03/16 02:18:13;;;;;;;1.98;1.10;;;;;;;;;;2080844;28;20033;-78
2023/03/16 02:19:35;;;;;;;1.40;0.60;;;;;;;;;;2080912;28;20029;-78
2023/03/16 02:21:02;;;;;;;0.60;0.52;;;;;;;;;;2080400;28;20084;-77
2023/03/16 02:22:23;;;;;;;1.73;0.57;;;;;;;;;;2075687;28;20074;-77
2023/03/16 02:23:45;;;;;;;4.35;0.77;;;;;;;;;;2076368;28;20029;-77
2023/03/16 02:25:05;;;;;;;0.80;0.70;;;;;;;;;;2079639;28;20029;-77
2023/03/16 02:26:28;;;;;;;1.20;0.70;;;;;;;;;;2079524;28;20108;-77
2023/03/16 02:28:07;;;;;;;1.10;0.70;;;;;;;;;;2079185;28;20018;-78
2023/03/16 02:29:28;;;;;;;0.98;0.70;;;;;;;;;;2073360;28;20391;-78
2023/03/16 02:30:47;;;;;;;1.58;0.63;;;;;;;;;;2076077;28;20386;-77
2023/03/16 02:32:06;;;;;;;2.33;0.70;;;;;;;;;;2080789;28;20033;-78
2023/03/16 02:33:25;;;;;;;1.00;0.88;;;;;;;;;;2080294;28;20053;-78
2023/03/16 02:34:44;;;;;;;0.80;0.70;;;;;;;;;;2081015;28;20025;-78
2023/03/16 02:36:04;;;;;;;1.15;0.70;;;;;;;;;;2077674;28;20034;-78
2023/03/16 02:37:23;;;;;;;0.98;0.70;;;;;;;;;;2083680;28;20029;-78
2023/03/16 02:38:42;;;;;;;0.85;0.52;;;;;;;;;;2078680;28;20417;-78
2023/03/16 02:40:15;;;;;;;2.80;0.70;;;;;;;;;;2073602;28;20038;-78
2023/03/16 02:41:34;;;;;;;;;;;;;;;;;;2076110;28;20045;-78
2023/03/16 02:43:03;;;;;;;0.80;0.63;;;;;;;;;;2080125;28;20261;-78
2023/03/16 02:44:25;;;;;;;1.00;0.88;;;;;;;;;;2078927;28;20445;-78
2023/03/16 02:45:52;;;;;;;0.98;0.75;;;;;;;;;;2078431;28;20022;-78
2023/03/16 02:47:19;;;;;;;0.60;0.55;;;;;;;;;;2079562;28;20451;-78
2023/03/16 02:48:46;;;;;;;1.35;0.95;;;;;;;;;;2072615;28;20069;-78
2023/03/16 02:50:06;;;;;;;1.60;0.80;;;;;;;;;;2076447;28;20033;-78
2023/03/16 02:51:25;;;;;;;0.90;0.60;;;;;;;;;;2072712;28;20499;-78
2023/03/16 02:52:44;;;;;;;1.30;0.90;;;;;;;;;;2071249;28;20037;-78
2023/03/16 02:54:03;;;;;;;1.38;0.90;;;;;;;;;;2075714;28;20053;-78
2023/03/16 02:55:21;;;;;;;1.48;0.90;;;;;;;;;;2079697;28;20025;-78
2023/03/16 02:56:41;;;;;;;1.30;0.70;;;;;;;;;;2078835;28;20104;-78
2023/03/16 02:58:00;;;;;;;2.15;0.70;;;;;;;;;;2072511;28;20034;-78
2023/03/16 02:59:19;;;;;;;1.00;0.70;;;;;;;;;;2066762;28;20019;-78
2023/03/16 03:00:38;;;;;;;2.08;0.73;;;;;;;;;;2077175;28;20033;-78
2023/03/16 03:01:56;;;;;;;2.13;0.90;;;;;;;;;;2078251;28;20029;-78
2023/03/16 03:03:15;;;;;;;0.80;0.70;;;;;;;;;;2077804;28;20030;-78
2023/03/16 03:04:34;;;;;;;1.00;0.90;;;;;;;;;;2079856;28;20057;-78
2023/03/16 03:05:53;;;;;;;1.63;0.77;;;;;;;;;;2076061;28;20457;-78
2023/03/16 03:07:13;;;;;;;1.10;0.73;;;;;;;;;;2069094;28;20026;-78
2023/03/16 03:08:32;;;;;;;1.65;0.60;;;;;;;;;;2079575;28;20958;-78
2023/03/16 03:09:52;;;;;;;2.78;0.80;;;;;;;;;;2077666;28;20025;-78
2023/03/16 03:11:11;;;;;;;1.08;0.68;;;;;;;;;;2081993;28;20022;-78
2023/03/16 03:12:31;;;;;;;2.15;0.82;;;;;;;;;;2076342;28;20414;-78
2023/03/16 03:13:50;;;;;;;0.85;0.80;;;;;;;;;;2078760;28;20113;-78
2023/03/16 03:15:09;;;;;;;0.68;0.60;;;;;;;;;;2077235;28;20038;-78
2023/03/16 03:16:28;;;;;;;1.20;0.80;;;;;;;;;;2078932;28;20033;-79
2023/03/16 03:17:47;;;;;;;2.85;0.70;;;;;;;;;;2079111;28;20033;-78
2023/03/16 03:19:06;;;;;;;0.70;0.68;;;;;;;;;;2080302;28;20029;-78
2023/03/16 03:20:25;;;;;;;1.60;0.70;;;;;;;;;;2077845;28;20033;-79
2023/03/16 03:21:44;;;;;;;1.00;0.73;;;;;;;;;;2080877;28;20038;-78
2023/03/16 03:23:04;;;;;;;1.35;0.70;;;;;;;;;;2078351;28;20054;-79
2023/03/16 03:24:23;;;;;;;2.63;0.80;;;;;;;;;;2080339;28;20704;-77
2023/03/16 03:25:42;;;;;;;0.85;0.50;;;;;;;;;;2072091;28;20514;-78
2023/03/16 03:27:04;;;;;;;0.80;0.70;;;;;;;;;;2077088;28;20030;-78
2023/03/16 03:28:23;;;;;;;1.23;0.60;;;;;;;;;;2074364;28;20520;-78
2023/03/16 03:29:43;;;;;;;4.15;0.95;;;;;;;;;;2071094;28;20030;-78
2023/03/16 03:31:02;;;;;;;2.50;0.70;;;;;;;;;;2075974;28;20034;-78
2023/03/16 03:32:21;;;;;;;2.58;1.00;;;;;;;;;;2081025;28;20487;-78
2023/03/16 03:33:40;;;;;;;1.55;0.70;;;;;;;;;;2079744;28;20041;-78
2023/03/16 03:35:00;;;;;;;2.33;1.00;;;;;;;;;;2073957;28;20042;-78
2023/03/16 03:36:20;;;;;;;1.63;0.85;;;;;;;;;;2074218;28;20030;-79
2023/03/16 03:37:41;;;;;;;0.70;0.63;;;;;;;;;;2071099;28;20101;-79
2023/03/16 03:39:04;;;;;;;1.65;0.80;;;;;;;;;;2076087;28;20437;-79
2023/03/16 03:40:23;;;;;;;1.20;0.60;;;;;;;;;;2071426;28;20129;-78
2023/03/16 03:41:42;;;;;;;0.68;0.40;;;;;;;;;;2064894;28;20022;-79
2023/03/16 03:43:01;;;;;;;2.13;0.70;;;;;;;;;;2075271;28;20037;-79
2023/03/16 03:44:21;;;;;;;1.08;0.80;;;;;;;;;;2071390;28;20022;-79
2023/03/16 03:45:40;;;;;;;2.55;0.70;;;;;;;;;;2075457;28;20056;-78
2023/03/16 03:46:59;;;;;;;0.98;0.70;;;;;;;;;;2079038;28;20972;-79
2023/03/16 03:48:18;;;;;;;1.58;0.88;;;;;;;;;;2078615;28;20037;-78
2023/03/16 03:49:37;;;;;;;2.90;0.90;;;;;;;;;;2072056;28;20038;-79
2023/03/16 03:50:56;;;;;;;1.77;0.98;;;;;;;;;;2074658;28;20033;-79
2023/03/16 03:52:15;;;;;;;1.75;1.13;;;;;;;;;;2080434;28;20029;-79
2023/03/16 03:53:34;;;;;;;2.92;0.80;;;;;;;;;;2079021;28;20492;-78
2023/03/16 03:54:53;;;;;;;3.55;0.80;;;;;;;;;;2079721;28;20124;-78
2023/03/16 03:56:12;;;;;;;0.77;0.60;;;;;;;;;;2080833;28;20056;-78
2023/03/16 03:57:31;;;;;;;2.15;0.80;;;;;;;;;;2074340;28;20395;-79
2023/03/16 03:58:49;;;;;;;3.00;0.75;;;;;;;;;;2077857;28;20029;-78
2023/03/16 04:00:12;;;;;;;2.78;1.08;;;;;;;;;;2078804;28;20025;-78
2023/03/16 04:01:31;;;;;;;0.80;0.77;;;;;;;;;;2078485;28;20025;-78
2023/03/16 04:02:50;;;;;;;1.75;0.70;;;;;;;;;;2078599;28;20014;-78
2023/03/16 04:04:09;;;;;;;1.60;0.88;;;;;;;;;;2070970;28;20101;-78
2023/03/16 04:05:28;;;;;;;1.13;0.77;;;;;;;;;;2076264;28;20029;-78
2023/03/16 04:06:47;;;;;;;1.23;0.93;;;;;;;;;;2077912;28;20518;-78
2023/03/16 04:08:06;;;;;;;4.57;0.82;;;;;;;;;;2079330;28;20482;-77
2023/03/16 04:09:25;;;;;;;1.30;0.65;;;;;;;;;;2080101;28;20021;-78
2023/03/16 04:10:45;;;;;;;2.60;0.77;;;;;;;;;;2070436;28;20065;-78
2023/03/16 04:12:05;;;;;;;1.77;0.82;;;;;;;;;;2077250;28;20045;-78
2023/03/16 04:13:24;;;;;;;0.85;0.60;;;;;;;;;;2079828;28;20029;-78
2023/03/16 04:14:43;;;;;;;6.50;1.10;;;;;;;;;;2080406;28;20039;-79
2023/03/16 04:16:02;;;;;;;0.82;0.80;;;;;;;;;;2072451;28;20033;-78
2023/03/16 04:17:22;;;;;;;1.60;0.65;;;;;;;;;;2071946;28;20025;-79
2023/03/16 04:18:42;;;;;;;1.23;0.95;;;;;;;;;;2078307;28;20026;-78
2023/03/16 04:20:04;;;;;;;1.05;0.73;;;;;;;;;;2078218;28;20509;-79
2023/03/16 04:21:23;;;;;;;1.10;0.60;;;;;;;;;;2079462;28;20046;-78
2023/03/16 04:22:42;;;;;;;2.17;1.05;;;;;;;;;;2074262;28;20018;-78
2023/03/16 04:24:04;;;;;;;0.85;0.80;;;;;;;;;;2077936;28;20021;-78
2023/03/16 04:25:24;;;;;;;0.98;0.60;;;;;;;;;;2079623;28;20402;-78
2023/03/16 04:26:46;;;;;;;2.80;0.73;;;;;;;;;;2074987;28;20030;-78
2023/03/16 04:28:05;;;;;;;1.50;0.70;;;;;;;;;;2078892;28;20033;-78
2023/03/16 04:29:24;;;;;;;1.73;0.70;;;;;;;;;;2071328;28;20030;-78
2023/03/16 04:30:43;;;;;;;1.73;0.98;;;;;;;;;;2066570;28;20034;-79
2023/03/16 04:32:02;;;;;;;1.08;0.80;;;;;;;;;;2071187;28;20041;-78
2023/03/16 04:33:21;;;;;;;1.52;0.75;;;;;;;;;;2077623;28;20041;-78
2023/03/16 04:34:42;;;;;;;2.08;0.82;;;;;;;;;;2080843;28;20064;-78
2023/03/16 04:36:02;;;;;;;1.17;0.80;;;;;;;;;;2079643;28;20449;-78
2023/03/16 04:37:21;;;;;;;1.00;0.50;;;;;;;;;;2079414;28;20041;-79
2023/03/16 04:38:40;;;;;;;0.73;0.40;;;;;;;;;;2080661;28;20021;-78
2023/03/16 04:40:03;;;;;;;1.02;0.80;;;;;;;;;;2080108;28;20038;-78
2023/03/16 04:41:23;;;;;;;1.95;0.70;;;;;;;;;;2075400;28;20038;-78
2023/03/16 04:42:43;;;;;;;2.88;0.77;;;;;;;;;;2079384;28;20092;-78
2023/03/16 04:44:03;;;;;;;1.23;0.77;;;;;;;;;;2082539;28;20022;-78
2023/03/16 04:45:23;;;;;;;0.82;0.70;;;;;;;;;;2073265;28;20109;-77
2023/03/16 04:46:42;;;;;;;3.22;0.85;;;;;;;;;;2079282;28;20017;-78
2023/03/16 04:48:01;;;;;;;2.92;0.77;;;;;;;;;;2074596;28;20022;-78
2023/03/16 04:49:20;;;;;;;1.10;0.70;;;;;;;;;;2068722;28;20053;-78
2023/03/16 04:50:39;;;;;;;4.53;1.00;;;;;;;;;;2080661;28;20037;-78
2023/03/16 04:51:59;;;;;;;3.75;0.90;;;;;;;;;;2074647;28;20031;-78
2023/03/16 04:53:19;;;;;;;3.63;1.00;;;;;;;;;;2073601;28;20042;-78
2023/03/16 04:54:37;;;;;;;1.35;0.60;;;;;;;;;;2067408;28;20034;-78
2023/03/16 04:55:57;;;;;;;1.00;0.80;;;;;;;;;;2077004;28;20029;-78
2023/03/16 04:57:18;;;;;;;5.13;0.85;;;;;;;;;;2073836;28;20042;-78
2023/03/16 04:58:36;;;;;;;1.33;0.90;;;;;;;;;;2077643;28;20033;-78
2023/03/16 04:59:55;;;;;;;2.88;0.90;;;;;;;;;;2081069;28;20030;-78
2023/03/16 05:01:15;;;;;;;2.55;0.77;;;;;;;;;;2080293;28;20041;-78
2023/03/16 05:02:34;;;;;;;1.00;0.75;;;;;;;;;;2081140;28;20100;-78
2023/03/16 05:03:53;;;;;;;2.35;0.80;;;;;;;;;;2082197;28;20026;-78
2023/03/16 05:05:12;;;;;;;2.85;0.70;;;;;;;;;;2072536;28;20046;-78
2023/03/16 05:06:32;;;;;;;1.17;0.65;;;;;;;;;;2078662;28;20030;-78
2023/03/16 05:07:51;;;;;;;2.45;1.17;;;;;;;;;;2080835;28;20026;-79
2023/03/16 05:09:10;;;;;;;1.17;0.88;;;;;;;;;;2079730;28;20029;-78
2023/03/16 05:10:28;;;;;;;1.08;0.80;;;;;;;;;;2080207;28;20411;-78
2023/03/16 05:11:47;;;;;;;3.38;0.90;;;;;;;;;;2074916;28;20025;-78
2023/03/16 05:13:06;;;;;;;1.55;0.90;;;;;;;;;;2075473;28;20053;-78
2023/03/16 05:14:26;;;;;;;3.10;1.00;;;;;;;;;;2079971;28;21296;-79
2023/03/16 05:15:45;;;;;;;3.70;0.90;;;;;;;;;;2077449;28;20041;-78
2023/03/16 05:17:04;;;;;;;1.30;0.80;;;;;;;;;;2074086;28;20037;-79
2023/03/16 05:18:23;;;;;;;0.90;0.88;;;;;;;;;;2078756;28;20034;-78
2023/03/16 05:19:42;;;;;;;2.78;0.80;;;;;;;;;;2072911;28;20017;-78
2023/03/16 05:21:01;;;;;;;4.38;1.13;;;;;;;;;;2077695;28;20025;-77
2023/03/16 05:22:20;;;;;;;0.60;0.60;;;;;;;;;;2079683;28;20060;-79
2023/03/16 05:23:39;;;;;;;1.85;0.73;;;;;;;;;;2081959;28;20029;-78
2023/03/16 05:25:02;;;;;;;2.17;0.75;;;;;;;;;;2077000;28;20037;-78
2023/03/16 05:26:20;;;;;;;0.60;0.60;;;;;;;;;;2079848;28;20026;-79
2023/03/16 05:27:43;;;;;;;1.48;0.80;;;;;;;;;;2079997;28;20029;-79
2023/03/16 05:29:04;;;;;;;1.10;0.80;;;;;;;;;;2081527;28;20037;-79
2023/03/16 05:30:23;;;;;;;2.85;0.80;;;;;;;;;;2074106;28;20038;-78
2023/03/16 05:31:45;;;;;;;2.53;1.25;;;;;;;;;;2076029;28;20021;-78
2023/03/16 05:33:04;;;;;;;3.03;1.00;;;;;;;;;;2073203;28;20498;-78
2023/03/16 05:34:23;;;;;;;2.58;1.05;;;;;;;;;;2070528;28;20021;-79
2023/03/16 05:35:41;;;;;;;1.88;1.20;;;;;;;;;;2069093;28;20038;-78
2023/03/16 05:37:00;;;;;;;0.80;0.70;;;;;;;;;;2070165;28;20116;-78
2023/03/16 05:38:19;;;;;;;5.13;1.10;;;;;;;;;;2080509;28;20021;-80
2023/03/16 05:39:38;;;;;;;1.83;1.13;;;;;;;;;;2080428;28;20229;-81
2023/03/16 05:41:00;;;;;;;3.75;0.82;;;;;;;;;;2080571;28;20089;-77
2023/03/16 05:42:19;;;;;;;2.22;1.13;;;;;;;;;;2072578;28;20129;-77
2023/03/16 05:43:38;;;;;;;1.02;0.85;;;;;;;;;;2074616;28;20052;-77
2023/03/16 05:44:57;;;;;;;2.22;1.05;;;;;;;;;;2078401;28;20029;-78
2023/03/16 05:46:17;;;;;;;1.58;0.88;;;;;;;;;;2079081;28;20022;-77
2023/03/16 05:47:36;;;;;;;3.08;0.93;;;;;;;;;;2075393;28;20104;-78
2023/03/16 05:48:55;;;;;;;1.35;0.95;;;;;;;;;;2072403;28;20023;-78
2023/03/16 05:50:15;;;;;;;3.22;1.15;;;;;;;;;;2078258;28;20029;-78
2023/03/16 05:51:34;;;;;;;1.20;0.73;;;;;;;;;;2086994;28;20571;-80
2023/03/16 05:52:53;;;;;;;2.42;1.00;;;;;;;;;;2082181;28;20029;-77
2023/03/16 05:54:13;;;;;;;1.50;0.70;;;;;;;;;;2082639;28;20038;-78
2023/03/16 05:55:32;;;;;;;4.22;1.00;;;;;;;;;;2074474;28;20093;-78
2023/03/16 05:56:51;;;;;;;1.40;0.93;;;;;;;;;;2077487;28;20022;-78
2023/03/16 05:58:11;;;;;;;3.08;1.00;;;;;;;;;;2079486;28;20030;-78
2023/03/16 05:59:30;;;;;;;2.47;1.10;;;;;;;;;;2079610;28;20156;-78
2023/03/16 06:00:49;;;;;;;3.22;0.88;;;;;;;;;;2081406;28;20034;-78
2023/03/16 06:02:09;;;;;;;2.15;1.00;;;;;;;;;;2077591;28;20026;-77
2023/03/16 06:03:28;;;;;;;1.40;1.27;;;;;;;;;;2070187;28;20684;-80
2023/03/16 06:04:47;;;;;;;3.85;1.05;;;;;;;;;;2078440;28;20033;-80
2023/03/16 06:06:06;;;;;;;2.47;1.00;;;;;;;;;;2067185;28;20509;-77
2023/03/16 06:07:25;;;;;;;3.10;1.08;;;;;;;;;;2072406;28;20057;-78
2023/03/16 06:08:44;;;;;;;2.47;0.90;;;;;;;;;;2076551;28;20443;-79
2023/03/16 06:10:04;;;;;;;1.40;1.23;;;;;;;;;;2068749;28;20210;-79
2023/03/16 06:11:23;;;;;;;1.60;1.15;;;;;;;;;;2072195;28;20026;-78
2023/03/16 06:12:42;;;;;;;3.08;0.98;;;;;;;;;;2078369;28;20065;-78
2023/03/16 06:14:01;;;;;;;3.17;1.00;;;;;;;;;;2081033;28;20025;-77
2023/03/16 06:15:23;;;;;;;2.10;0.95;;;;;;;;;;2073486;28;20029;-78
2023/03/16 06:16:42;;;;;;;1.88;1.35;;;;;;;;;;2078708;28;20026;-78
2023/03/16 06:18:04;;;;;;;4.93;1.20;;;;;;;;;;2074714;28;20157;-79
2023/03/16 06:19:23;;;;;;;4.97;1.17;;;;;;;;;;2077269;28;20546;-77
2023/03/16 06:20:42;;;;;;;3.38;0.98;;;;;;;;;;2070436;28;20486;-79
2023/03/16 06:22:01;;;;;;;2.65;1.25;;;;;;;;;;2070055;28;20037;-79
2023/03/16 06:23:20;;;;;;;3.78;1.10;;;;;;;;;;2068197;28;20590;-78
2023/03/16 06:24:40;;;;;;;3.38;1.10;;;;;;;;;;2079557;28;20037;-76
2023/03/16 06:25:59;;;;;;;7.15;1.40;;;;;;;;;;2069866;28;20112;-76
2023/03/16 06:27:20;;;;;;;4.40;1.33;;;;;;;;;;2068752;28;20132;-77
2023/03/16 06:28:40;;;;;;;5.78;1.60;;;;;;;;;;2068684;28;20038;-77
2023/03/16 06:30:00;;;;;;;4.95;1.40;;;;;;;;;;2065516;28;20026;-77
2023/03/16 06:31:19;;;;;;;1.92;1.27;;;;;;;;;;2065463;28;20022;-78
2023/03/16 06:32:40;;;;;;;3.45;1.25;;;;;;;;;;2074707;28;20406;-77
2023/03/16 06:34:00;;;;;;;7.15;1.20;;;;;;;;;;2073008;28;20046;-77
2023/03/16 06:35:18;;;;;;;2.25;0.82;;;;;;;;;;2077319;28;20118;-77
2023/03/16 06:36:38;;;;;;;6.15;1.60;;;;;;;;;;2073738;28;20510;-76
2023/03/16 06:38:00;;;;;;;6.60;1.90;;;;;;;;;;2071076;28;20459;-77
2023/03/16 06:39:21;;;;;;;5.78;1.65;;;;;;;;;;2066746;28;20034;-79
2023/03/16 06:40:40;;;;;;;6.53;1.50;;;;;;;;;;2070902;28;20034;-78
2023/03/16 06:41:59;;;;;;;1.58;1.30;;;;;;;;;;2067866;28;20025;-78
2023/03/16 06:43:18;;;;;;;3.97;1.17;;;;;;;;;;2075589;28;20441;-79
2023/03/16 06:44:37;;;;;;;6.13;1.40;;;;;;;;;;2080622;28;20029;-77
2023/03/16 06:45:57;;;;;;;4.53;1.60;;;;;;;;;;2078869;28;20029;-78
2023/03/16 06:47:16;;;;;;;5.20;1.48;;;;;;;;;;2072377;28;20102;-78
2023/03/16 06:48:35;;;;;;;5.65;1.27;;;;;;;;;;2070313;28;20033;-78
2023/03/16 06:49:57;;;;;;;9.20;1.55;;;;;;;;;;2077900;28;20041;-78
2023/03/16 06:51:16;;;;;;;7.17;2.63;;;;;;;;;;2078131;28;20037;-78
2023/03/16 06:52:35;;;;;;;7.85;1.40;;;;;;;;;;2080091;28;20302;-80
2023/03/16 06:53:53;;;;;;;5.03;1.30;;;;;;;;;;2079694;28;20486;-78
2023/03/16 06:55:13;;;;;;;5.15;1.80;;;;;;;;;;2070915;28;20034;-78
2023/03/16 06:56:32;;;;;;;4.93;1.73;;;;;;;;;;2073683;28;20033;-79
2023/03/16 06:57:51;;;;;;;2.63;1.10;;;;;;;;;;2077380;28;20049;-80
2023/03/16 06:59:10;;;;;;;4.63;1.48;;;;;;;;;;2078497;28;20030;-78
2023/03/16 07:00:30;;;;;;;7.15;1.60;;;;;;;;;;2078944;28;20033;-78
2023/03/16 07:01:50;;;;;;;4.40;1.30;;;;;;;;;;2079996;28;20021;-79
2023/03/16 07:03:09;;;;;;;4.38;1.30;;;;;;;;;;2076311;28;20036;-79
2023/03/16 07:04:28;;;;;;;10.30;1.60;;;;;;;;;;2070559;28;20026;-79
2023/03/16 07:05:47;;;;;;;3.70;1.00;;;;;;;;;;2076567;28;20026;-78
2023/03/16 07:07:06;;;;;;;9.13;1.38;;;;;;;;;;2072561;28;20022;-78
2023/03/16 07:08:25;;;;;;;2.03;0.90;;;;;;;;;;2071530;28;20033;-78
2023/03/16 07:09:45;;;;;;;3.92;1.20;;;;;;;;;;2075071;28;20498;-79
2023/03/16 07:11:04;;;;;;;2.55;1.20;;;;;;;;;;2071750;28;20038;-79
2023/03/16 07:12:23;;;;;;;3.08;1.50;;;;;;;;;;2070423;28;20430;-78
2023/03/16 07:13:43;;;;;;;4.13;1.15;;;;;;;;;;2075908;28;20033;-79
2023/03/16 07:15:02;;;;;;;6.30;1.25;;;;;;;;;;2074716;28;20033;-79
2023/03/16 07:16:21;;;;;;;2.72;1.58;;;;;;;;;;2079580;28;20033;-79
2023/03/16 07:17:41;;;;;;;3.78;1.60;;;;;;;;;;2073572;28;20026;-78
2023/03/16 07:19:00;;;;;;;5.63;1.48;;;;;;;;;;2080081;28;20037;-78
2023/03/16 07:20:20;;;;;;;5.45;1.15;;;;;;;;;;2074505;28;20038;-78
2023/03/16 07:21:39;;;;;;;4.53;1.50;;;;;;;;;;2073469;28;20073;-79
2023/03/16 07:22:58;;;;;;;4.95;1.52;;;;;;;;;;2077486;28;20014;-78
2023/03/16 07:24:17;;;;;;;2.90;1.35;;;;;;;;;;2079605;28;20033;-79
2023/03/16 07:25:36;;;;;;;4.15;1.45;;;;;;;;;;2077617;28;20537;-78
2023/03/16 07:26:55;;;;;;;5.72;1.73;;;;;;;;;;2072176;28;20034;-79
2023/03/16 07:28:15;;;;;;;3.15;1.50;;;;;;;;;;2073328;28;20029;-78
2023/03/16 07:29:33;;;;;;;5.95;1.50;;;;;;;;;;2078888;28;20029;-78
2023/03/16 07:30:53;;;;;;;4.75;1.77;;;;;;;;;;2081580;28;20045;-78
2023/03/16 07:32:12;;;;;;;7.85;1.80;;;;;;;;;;2078729;28;20033;-79
2023/03/16 07:33:31;;;;;;;3.58;1.60;;;;;;;;;;2072288;28;20058;-79
2023/03/16 07:34:50;;;;;;;8.05;1.40;;;;;;;;;;2077780;28;20041;-78
2023/03/16 07:36:09;;;;;;;4.28;1.55;;;;;;;;;;2080196;28;20116;-78
2023/03/16 07:37:29;;;;;;;7.93;1.50;;;;;;;;;;2078542;28;20498;-78
2023/03/16 07:38:49;;;;;;;14.80;1.70;;;;;;;;;;2079937;28;20545;-79
2023/03/16 07:40:09;;;;;;;6.05;1.73;;;;;;;;;;2074888;28;20030;-78
2023/03/16 07:41:28;;;;;;;4.15;1.30;;;;;;;;;;2069966;28;20034;-79
2023/03/16 07:42:46;;;;;;;6.95;1.83;;;;;;;;;;2068243;28;20022;-78
2023/03/16 07:44:05;;;;;;;6.75;1.58;;;;;;;;;;2077882;28;20373;-79
2023/03/16 07:45:24;;;;;;;12.52;2.13;;;;;;;;;;2079796;28;20112;-78
2023/03/16 07:46:43;;;;;;;4.28;1.42;;;;;;;;;;2068874;28;20038;-78
2023/03/16 07:48:02;;;;;;;4.65;1.67;;;;;;;;;;2064363;28;20153;-79
2023/03/16 07:49:22;;;;;;;7.47;1.80;;;;;;;;;;2073261;28;20498;-79
2023/03/16 07:50:41;;;;;;;6.20;2.15;;;;;;;;;;2077653;28;20026;-79
2023/03/16 07:52:00;;;;;;;4.78;1.67;;;;;;;;;;2081091;28;20667;-79
2023/03/16 07:53:19;;;;;;;8.75;1.60;;;;;;;;;;2073298;28;20503;-79
2023/03/16 07:54:39;;;;;;;9.70;1.70;;;;;;;;;;2077471;28;20030;-79
2023/03/16 07:55:58;;;;;;;20.08;2.58;;;;;;;;;;2073224;28;20033;-78
2023/03/16 07:57:17;;;;;;;6.05;1.80;;;;;;;;;;2071060;28;20022;-79
2023/03/16 07:58:36;;;;;;;10.40;2.22;;;;;;;;;;2071760;28;20018;-79
2023/03/16 07:59:55;;;;;;;14.25;2.03;;;;;;;;;;2077082;28;20025;-79